Ruma, Illinois
Current Conditions -  °F | °C
As of 1:55 PM on Thursday 23 Oct 2014 (Local Time) from KSAR Reporting Station
Clear Clear  
Wind Chill: 60°   Ceiling: Unl
Heat Index: 60°   Visibility: 10mi
Dew Point: 44°   Wind: 6mph
Humidity: 56%   Direction: 210°SSW
Pressure: 30.18"   Gusts: NA
Location:  38.1575°N, 89.9813°W
Report Text: KSAR 231855Z AUTO 21005KT 10SM CLR 15/07 A3018 RMK AO2 T01540067
Loading
Personal Weather Stations






























Interactive Weather Map New forecast layout! Learn more

10-Day Weather Forecast

Advertisements
Track Severe Weather on mobile